Pagina principale
METAR-TAF:

METAR-TAF

Aeroporti :

Aeroporto di Oslo-Gardermoen

Oslo, Norvegia

latitudine: 60-12N, longitudine: 011-05E, altezza: 208 m

Osservazione

Il bollettino è stato emesso 30 minuti fa, alle 08:50 UTC
Vento calmo
Temperature 4°C
Umidità 93%
Pressione 1039 hPa
Visibilità 10 km o più
Nuvoloso ad un'altezza di 700 ft

METAR: ENGM 170850Z 00000KT 9999 BKN007 04/03 Q1039 NOSIG

Ora: 10:20 (09:20 UTC)

Previsione

Previsione valida dal 17 alle 06 UTC al 18 alle 06 UTC
Vento 5 kt da direzioni variabili
Visibilità 10 km o più
Nuvoloso ad un'altezza di 1200 ft
Temporaneamente
dal 17 alle 06 UTC al 17 alle 18 UTC
Nuvoloso ad un'altezza di 800 ft
Evoluzione graduale
dal 17 alle 18 UTC al 17 alle 20 UTC
Nubi sparse ad un'altezza di 1200 ft
Probabilità 30%
dal 17 alle 20 UTC al 18 alle 06 UTC
Visibilità: 0500 m
ad un'altezza di 100 ft
nebbia

TAF: ENGM 1706/1806 VRB05KT 9999 BKN012 TEMPO 1706/1718 BKN008 BECMG 1718/1720 SCT012 PROB30 1720/1806 0500 FG VV001

Osservazioni e previsioni meteorologiche di più di 4000 aeroporti (messaggi METAR e TAF).

Le stazioni disponibili sono rappresentate dai dischi gialli e rossi sulla carta.

Puntare il mouse per vedere il nome della stazione.

Clicca sopra per visualizzare le osservazioni e previsioni meteorologiche.

Per cambiare la mappa : fare clic sui pulsanti verdi con una croce nera per ingrandire, il pulsante verde con un trattino per diminuire, o sulla freccia verde per le mappe adiacenti.


METAR-TAF: